Beasley, Texas
Current Conditions -  °F | °C
As of 11:53 PM on Sunday 25 Jan 2015 (Local Time) from KSGR Reporting Station
Clear Clear  
Wind Chill: 53°   Ceiling: Unl
Heat Index: 53°   Visibility: 10mi
Dew Point: 29°   Wind: 9mph
Humidity: 40%   Direction: 340°NNW
Pressure: 30.15"   Gusts: NA
Location:  29.5°N, 95.92°W
Report Text: KSGR 260553Z AUTO 34008KT 10SM CLR 12/M02 A3015 RMK AO2 SLP210 T01171017 10172 20106 402110039 51010
Loading
Personal Weather Stations






























Interactive Weather Map New forecast layout! Learn more

10-Day Weather Forecast

Advertisements
Track Severe Weather on mobile